CFQ2 weather

CLOSED Calgary (Westport) Heliport
Calgary, Alberta, Canada

Public forecast

Using degrees Celsius for public forecast. Weather courtesy of forecast.io.

Closest aviation weather report (METAR) to Calgary (Westport) Heliport

Closest report is Calgary / Springbank Airport, 7.8 nm (14.5 km) WNW. Retrieved 2019/12/12 21:32 UTC (0 seconds ago):

CYBW 122132Z AUTO 13007KT 6SM BR BKN095 OVC110 M05/M07 A2959 RMK SLP089

Closest aviation forecast (TAF) to Calgary (Westport) Heliport

Closest forecast is Calgary / Springbank Airport, 7.8 nm (14.5 km) WNW. Retrieved 2019/12/12 18:00 UTC (3 hours ago):

TAF CYBW 121738Z 1218/1305 34006KT P6SM BKN150 BECMG 1222/1224 30006KT FM130200 03006KT 5SM BR SCT004 OVC008 TEMPO 1302/1305 11/2SM BR OVC004 RMK FCST BASED ON AUTO OBS NXT FCST BY 130000Z